x

Molasses Reef, Fl (mlrf1) Weather Station

4:00pm - Fri 4th Sep 2015 All times are EDT. -4 hours from GMT.

  • Wind
    9mph, 10mph gusts
  • Sea Temp 88°f
  • Air Temp 86°f
  • Sea Pressure 1014mb
  • Molasses Reef, Fl
  • Molasses Reef, Fl

More Historic Weather Station data

Upgrade to MSW Pro to gain access to the past 30 days of data for over 8000 Wavebouys and Weather Stations around the globe.

Join Pro

Comparision Forecast

View Surf forecast
   
Fri 09/04 4:00pm 9 10 mph 1014mb 88f 86f
3:00pm 7 8 mph 1014.6mb 88f 85f
2:00pm 1 3 mph 1015.2mb 88f 85f
1:00pm 2
mph
1015.8mb 87f 85f
12:00pm  -  1 mph 1016.1mb 87f 86f
11:00am  -  mph 1016mb 87f 85f
10:00am 2 3 mph 1015.7mb 87f 84f
9:00am 5 6 mph 1015.3mb 87f 85f
8:00am 2
mph
1014.9mb 87f 85f
7:00am 5 6 mph 1014.3mb 87f 84f
6:00am 1 3 mph 1013.7mb 87f 84f
5:00am 2 5 mph 1013.4mb 87f 84f
4:00am 5 7 mph 1013.4mb 87f 84f
3:00am 6 7 mph 1013.4mb 88f 84f
2:00am 6 7 mph 1013.9mb 88f 84f
1:00am 6 7 mph 1014.7mb 88f 84f
12:00am 6 8 mph 1014.8mb 88f 85f
Thu 09/03 11:00pm 3 6 mph 1014.7mb 87f 85f
10:00pm  -  mph 1014.8mb 87f 85f
9:00pm  -  1 mph 1014.6mb 87f 85f
8:00pm  -  mph 1013.8mb 87f 85f
7:00pm  -  1 mph 1013.5mb 87f 85f
6:00pm 6 7 mph 1013.3mb 87f 85f
5:00pm 8 9 mph 1013.4mb 87f 85f
4:00pm 7 8 mph 1014.2mb 87f 85f
3:00pm 5 6 mph 1014.7mb 87f 85f
2:00pm 2 3 mph 1015.1mb 87f 85f
1:00pm 3 5 mph 1015.6mb 87f 85f
12:00pm 1 2 mph 1016mb 87f 85f
11:00am 2
mph
1016.2mb 87f 85f
10:00am  -  1 mph 1016.1mb 87f 85f
9:00am 2
mph
1016mb 87f 85f
8:00am  -  mph 1015.4mb 87f 86f
7:00am 5 6 mph 1014.7mb 87f 84f
6:00am 2 5 mph 1014.6mb 87f 84f
5:00am  -  2 mph 1014.8mb 87f 84f
4:00am 5 6 mph 1014.6mb 87f 84f
3:00am 7 8 mph 1015mb 87f 84f
2:00am 2 5 mph 1015.7mb 87f 84f
1:00am 6 7 mph 1016.3mb 87f 84f
12:00am 7 8 mph 1016.8mb 87f 85f
Wed 09/02 11:00pm 9 10 mph 1016.4mb 87f 85f
10:00pm 8 9 mph 1016.6mb 87f 85f
9:00pm 7 8 mph 1016.5mb 87f 85f
8:00pm 6 7 mph 1015.7mb 87f 85f
7:00pm 10 11 mph 1015.3mb 87f 85f
6:00pm 7 8 mph 1015.6mb 87f 86f
5:00pm 6
mph
1015.9mb 88f 86f
4:00pm 6 7 mph 1016.4mb 88f 85f
3:00pm 8
mph
1016.6mb 87f 85f
2:00pm 3 5 mph 1017.6mb 87f 85f
1:00pm 6 7 mph 1018.1mb 87f 85f
12:00pm 3
mph
1018.7mb 87f 85f
11:00am 6
mph
1018.7mb 87f 85f
10:00am 3 6 mph 1018.6mb 87f 85f
9:00am 6 7 mph 1018.4mb 87f 86f
8:00am 6
mph
1018.2mb 86f 85f
7:00am 5 6 mph 1017.8mb 87f 85f
6:00am 9 10 mph 1017mb 87f 84f
5:00am 10 11 mph 1016.7mb 87f 85f
4:00am 13
mph
1016.6mb 87f 85f
3:00am 10 11 mph 1017mb 87f 85f
2:00am 10 11 mph 1017.6mb 87f 85f
1:00am 10 11 mph 1017.9mb 87f 85f
12:00am 9 10 mph 1018.3mb 87f 85f
Tue 09/01 11:00pm 11 13 mph 1018.2mb 87f 85f
10:00pm 8 10 mph 1018.6mb 87f 85f
9:00pm 8
mph
1017.8mb 87f 85f
8:00pm 8 9 mph 1017.3mb 87f 85f
7:00pm 7 9 mph 1017.1mb 87f 85f
6:00pm 6 7 mph 1017.2mb 87f 86f
5:00pm 5 6 mph 1016.7mb 87f 85f
4:00pm 5 6 mph 1017.1mb 87f 85f
3:00pm 6 7 mph 1017.9mb 87f 85f
2:00pm 8 9 mph 1018.3mb 87f 85f
1:00pm 9 10 mph 1018.4mb 87f 85f
12:00pm 9 10 mph 1018.9mb 87f 85f
11:00am 9 10 mph 1019.3mb 87f 85f
10:00am 8 10 mph 1019mb 87f 85f
9:00am 10 13 mph 1018.5mb 87f 85f
8:00am 11 13 mph 1017.8mb 86f 84f
7:00am 11 13 mph 1017.4mb 87f 83f
6:00am 8 10 mph 1017mb 87f 84f
5:00am 9 10 mph 1016.8mb 86f 84f
4:00am 10 11 mph 1016.6mb 87f 84f
3:00am 11 13 mph 1016.6mb 87f 84f
2:00am 8
mph
1017.2mb 87f 84f
1:00am 6 7 mph 1017.9mb 87f 85f
12:00am 6
mph
1018.4mb 87f 85f
Mon 08/31 11:00pm 6 7 mph 1018.5mb 86f 85f
10:00pm 2 5 mph 1018.5mb 87f 85f